sensor_id;sensor_type;location;lat;lon;timestamp;temperature;humidity
39079;DHT22;24829;49.208;12.080;2023-07-29T00:01:16;18.30;99.90
39079;DHT22;24829;49.208;12.080;2023-07-29T00:03:42;18.20;99.90
39079;DHT22;24829;49.208;12.080;2023-07-29T00:06:09;18.20;99.90
39079;DHT22;24829;49.208;12.080;2023-07-29T00:08:34;18.20;99.90
39079;DHT22;24829;49.208;12.080;2023-07-29T00:11:00;18.20;99.90
39079;DHT22;24829;49.208;12.080;2023-07-29T00:13:25;18.10;99.90
39079;DHT22;24829;49.208;12.080;2023-07-29T00:15:54;18.20;99.90
39079;DHT22;24829;49.208;12.080;2023-07-29T00:18:19;18.20;99.90
39079;DHT22;24829;49.208;12.080;2023-07-29T00:20:45;18.20;99.90
39079;DHT22;24829;49.208;12.080;2023-07-29T00:23:10;18.20;99.90
39079;DHT22;24829;49.208;12.080;2023-07-29T00:25:36;18.20;99.90
39079;DHT22;24829;49.208;12.080;2023-07-29T00:28:02;18.20;99.90
39079;DHT22;24829;49.208;12.080;2023-07-29T00:30:27;18.20;99.90
39079;DHT22;24829;49.208;12.080;2023-07-29T00:32:53;18.30;99.90
39079;DHT22;24829;49.208;12.080;2023-07-29T00:35:18;18.30;99.90
39079;DHT22;24829;49.208;12.080;2023-07-29T00:37:44;18.30;99.90
39079;DHT22;24829;49.208;12.080;2023-07-29T00:40:15;18.30;99.90
39079;DHT22;24829;49.208;12.080;2023-07-29T00:42:44;18.20;99.90
39079;DHT22;24829;49.208;12.080;2023-07-29T00:45:10;18.20;99.90
39079;DHT22;24829;49.208;12.080;2023-07-29T00:47:36;18.20;99.90
39079;DHT22;24829;49.208;12.080;2023-07-29T00:53:11;18.10;99.90
39079;DHT22;24829;49.208;12.080;2023-07-29T00:55:37;18.00;99.90
39079;DHT22;24829;49.208;12.080;2023-07-29T00:58:03;18.00;99.90
39079;DHT22;24829;49.208;12.080;2023-07-29T01:00:28;17.90;99.90
39079;DHT22;24829;49.208;12.080;2023-07-29T01:02:54;17.90;99.90
39079;DHT22;24829;49.208;12.080;2023-07-29T01:05:20;17.90;99.90
39079;DHT22;24829;49.208;12.080;2023-07-29T01:07:56;17.90;99.90
39079;DHT22;24829;49.208;12.080;2023-07-29T01:10:40;17.90;99.90
39079;DHT22;24829;49.208;12.080;2023-07-29T01:16:01;17.80;99.90
39079;DHT22;24829;49.208;12.080;2023-07-29T01:18:31;17.80;99.90
39079;DHT22;24829;49.208;12.080;2023-07-29T01:21:03;17.80;99.90
39079;DHT22;24829;49.208;12.080;2023-07-29T01:23:36;17.80;99.90
39079;DHT22;24829;49.208;12.080;2023-07-29T01:26:03;17.60;99.90
39079;DHT22;24829;49.208;12.080;2023-07-29T01:28:29;17.60;99.90
39079;DHT22;24829;49.208;12.080;2023-07-29T01:31:03;17.60;99.90
39079;DHT22;24829;49.208;12.080;2023-07-29T01:33:53;17.70;99.90
39079;DHT22;24829;49.208;12.080;2023-07-29T01:36:22;17.60;99.90
39079;DHT22;24829;49.208;12.080;2023-07-29T01:38:52;17.60;99.90
39079;DHT22;24829;49.208;12.080;2023-07-29T01:41:19;17.70;99.90
39079;DHT22;24829;49.208;12.080;2023-07-29T01:43:45;17.60;99.90
39079;DHT22;24829;49.208;12.080;2023-07-29T01:46:15;17.60;99.90
39079;DHT22;24829;49.208;12.080;2023-07-29T01:48:41;17.60;99.90
39079;DHT22;24829;49.208;12.080;2023-07-29T01:51:07;17.60;99.90
39079;DHT22;24829;49.208;12.080;2023-07-29T01:53:34;17.60;99.90
39079;DHT22;24829;49.208;12.080;2023-07-29T01:56:00;17.60;99.90
39079;DHT22;24829;49.208;12.080;2023-07-29T01:58:27;17.60;99.90
39079;DHT22;24829;49.208;12.080;2023-07-29T02:00:52;17.60;99.90
39079;DHT22;24829;49.208;12.080;2023-07-29T02:03:18;17.60;99.90
39079;DHT22;24829;49.208;12.080;2023-07-29T02:05:43;17.50;99.90
39079;DHT22;24829;49.208;12.080;2023-07-29T02:08:10;17.60;99.90
39079;DHT22;24829;49.208;12.080;2023-07-29T02:10:35;17.60;99.90
39079;DHT22;24829;49.208;12.080;2023-07-29T02:13:01;17.60;99.90
39079;DHT22;24829;49.208;12.080;2023-07-29T02:15:27;17.60;99.90
39079;DHT22;24829;49.208;12.080;2023-07-29T02:17:53;17.50;99.90
39079;DHT22;24829;49.208;12.080;2023-07-29T02:20:19;17.60;99.90
39079;DHT22;24829;49.208;12.080;2023-07-29T02:22:44;17.50;99.90
39079;DHT22;24829;49.208;12.080;2023-07-29T02:25:10;17.50;99.90
39079;DHT22;24829;49.208;12.080;2023-07-29T02:27:36;17.50;99.90
39079;DHT22;24829;49.208;12.080;2023-07-29T02:30:02;17.50;99.90
39079;DHT22;24829;49.208;12.080;2023-07-29T02:32:28;17.40;99.90
39079;DHT22;24829;49.208;12.080;2023-07-29T02:34:53;17.40;99.90
39079;DHT22;24829;49.208;12.080;2023-07-29T02:37:19;17.40;99.90
39079;DHT22;24829;49.208;12.080;2023-07-29T02:39:45;17.40;99.90
39079;DHT22;24829;49.208;12.080;2023-07-29T02:42:11;17.40;99.90
39079;DHT22;24829;49.208;12.080;2023-07-29T02:44:37;17.30;99.90
39079;DHT22;24829;49.208;12.080;2023-07-29T02:47:02;17.30;99.90
39079;DHT22;24829;49.208;12.080;2023-07-29T02:49:28;17.30;99.90
39079;DHT22;24829;49.208;12.080;2023-07-29T02:51:53;17.30;99.90
39079;DHT22;24829;49.208;12.080;2023-07-29T02:54:19;17.40;99.90
39079;DHT22;24829;49.208;12.080;2023-07-29T02:56:45;17.40;99.90
39079;DHT22;24829;49.208;12.080;2023-07-29T02:59:10;17.40;99.90
39079;DHT22;24829;49.208;12.080;2023-07-29T03:01:36;17.40;99.90
39079;DHT22;24829;49.208;12.080;2023-07-29T03:04:01;17.40;99.90
39079;DHT22;24829;49.208;12.080;2023-07-29T03:06:27;17.40;99.90
39079;DHT22;24829;49.208;12.080;2023-07-29T03:08:52;17.30;99.90
39079;DHT22;24829;49.208;12.080;2023-07-29T03:11:18;17.40;99.90
39079;DHT22;24829;49.208;12.080;2023-07-29T03:13:44;17.30;99.90
39079;DHT22;24829;49.208;12.080;2023-07-29T03:16:13;17.30;99.90
39079;DHT22;24829;49.208;12.080;2023-07-29T03:18:39;17.30;99.90
39079;DHT22;24829;49.208;12.080;2023-07-29T03:21:05;17.20;99.90
39079;DHT22;24829;49.208;12.080;2023-07-29T03:23:31;17.20;99.90
39079;DHT22;24829;49.208;12.080;2023-07-29T03:25:58;17.20;99.90
39079;DHT22;24829;49.208;12.080;2023-07-29T03:28:28;17.20;99.90
39079;DHT22;24829;49.208;12.080;2023-07-29T03:30:55;17.20;99.90
39079;DHT22;24829;49.208;12.080;2023-07-29T03:33:21;17.10;99.90
39079;DHT22;24829;49.208;12.080;2023-07-29T03:35:47;17.10;99.90
39079;DHT22;24829;49.208;12.080;2023-07-29T03:38:13;17.10;99.90
39079;DHT22;24829;49.208;12.080;2023-07-29T03:40:39;17.00;99.90
39079;DHT22;24829;49.208;12.080;2023-07-29T03:43:05;17.00;99.90
39079;DHT22;24829;49.208;12.080;2023-07-29T03:45:31;17.10;99.90
39079;DHT22;24829;49.208;12.080;2023-07-29T03:47:56;17.00;99.90
39079;DHT22;24829;49.208;12.080;2023-07-29T03:50:22;17.00;99.90
39079;DHT22;24829;49.208;12.080;2023-07-29T03:52:48;17.00;99.90
39079;DHT22;24829;49.208;12.080;2023-07-29T03:55:13;16.90;99.90
39079;DHT22;24829;49.208;12.080;2023-07-29T03:57:39;17.00;99.90
39079;DHT22;24829;49.208;12.080;2023-07-29T04:00:05;16.90;99.90
39079;DHT22;24829;49.208;12.080;2023-07-29T04:02:31;16.90;99.90
39079;DHT22;24829;49.208;12.080;2023-07-29T04:04:56;16.90;99.90
39079;DHT22;24829;49.208;12.080;2023-07-29T04:07:22;16.90;99.90
39079;DHT22;24829;49.208;12.080;2023-07-29T04:09:48;16.90;99.90
39079;DHT22;24829;49.208;12.080;2023-07-29T04:12:14;17.00;99.90
39079;DHT22;24829;49.208;12.080;2023-07-29T04:14:40;16.90;99.90
39079;DHT22;24829;49.208;12.080;2023-07-29T04:17:07;16.90;99.90
39079;DHT22;24829;49.208;12.080;2023-07-29T04:19:32;16.90;99.90
39079;DHT22;24829;49.208;12.080;2023-07-29T04:21:58;16.90;99.90
39079;DHT22;24829;49.208;12.080;2023-07-29T04:24:24;16.90;99.90
39079;DHT22;24829;49.208;12.080;2023-07-29T04:26:49;16.90;99.90
39079;DHT22;24829;49.208;12.080;2023-07-29T04:29:15;17.00;99.90
39079;DHT22;24829;49.208;12.080;2023-07-29T04:31:40;17.10;99.90
39079;DHT22;24829;49.208;12.080;2023-07-29T04:34:06;17.10;99.90
39079;DHT22;24829;49.208;12.080;2023-07-29T04:36:31;17.20;99.90
39079;DHT22;24829;49.208;12.080;2023-07-29T04:38:58;17.20;99.90
39079;DHT22;24829;49.208;12.080;2023-07-29T04:41:23;17.20;99.90
39079;DHT22;24829;49.208;12.080;2023-07-29T04:43:49;17.30;99.90
39079;DHT22;24829;49.208;12.080;2023-07-29T04:46:15;17.30;99.90
39079;DHT22;24829;49.208;12.080;2023-07-29T04:48:40;17.40;99.90
39079;DHT22;24829;49.208;12.080;2023-07-29T04:51:06;17.60;99.90
39079;DHT22;24829;49.208;12.080;2023-07-29T04:53:32;17.80;99.90
39079;DHT22;24829;49.208;12.080;2023-07-29T04:55:57;18.10;99.90
39079;DHT22;24829;49.208;12.080;2023-07-29T04:58:23;18.40;99.90
39079;DHT22;24829;49.208;12.080;2023-07-29T05:00:49;18.60;99.90
39079;DHT22;24829;49.208;12.080;2023-07-29T05:03:14;18.50;99.90
39079;DHT22;24829;49.208;12.080;2023-07-29T05:05:40;18.50;99.90
39079;DHT22;24829;49.208;12.080;2023-07-29T05:08:05;18.40;99.90
39079;DHT22;24829;49.208;12.080;2023-07-29T05:10:31;18.30;99.90
39079;DHT22;24829;49.208;12.080;2023-07-29T05:12:56;18.30;99.90
39079;DHT22;24829;49.208;12.080;2023-07-29T05:15:22;18.30;99.90
39079;DHT22;24829;49.208;12.080;2023-07-29T05:17:48;18.30;99.90
39079;DHT22;24829;49.208;12.080;2023-07-29T05:20:13;18.40;99.90
39079;DHT22;24829;49.208;12.080;2023-07-29T05:22:39;18.50;99.90
39079;DHT22;24829;49.208;12.080;2023-07-29T05:25:05;18.60;99.90
39079;DHT22;24829;49.208;12.080;2023-07-29T05:27:31;18.50;99.90
39079;DHT22;24829;49.208;12.080;2023-07-29T05:29:56;18.50;99.90
39079;DHT22;24829;49.208;12.080;2023-07-29T05:32:22;18.70;99.90
39079;DHT22;24829;49.208;12.080;2023-07-29T05:34:47;19.20;99.90
39079;DHT22;24829;49.208;12.080;2023-07-29T05:37:13;19.40;99.90
39079;DHT22;24829;49.208;12.080;2023-07-29T05:39:38;19.40;99.90
39079;DHT22;24829;49.208;12.080;2023-07-29T05:42:04;19.30;99.90
39079;DHT22;24829;49.208;12.080;2023-07-29T05:44:31;19.20;99.90
39079;DHT22;24829;49.208;12.080;2023-07-29T05:46:56;19.10;99.90
39079;DHT22;24829;49.208;12.080;2023-07-29T05:49:22;19.00;99.90
39079;DHT22;24829;49.208;12.080;2023-07-29T05:51:48;18.90;99.90
39079;DHT22;24829;49.208;12.080;2023-07-29T05:54:13;18.90;99.90
39079;DHT22;24829;49.208;12.080;2023-07-29T05:56:39;18.90;99.90
39079;DHT22;24829;49.208;12.080;2023-07-29T05:59:04;19.00;99.90
39079;DHT22;24829;49.208;12.080;2023-07-29T06:01:30;19.00;99.90
39079;DHT22;24829;49.208;12.080;2023-07-29T06:03:55;18.90;99.90
39079;DHT22;24829;49.208;12.080;2023-07-29T06:06:21;18.90;99.90
39079;DHT22;24829;49.208;12.080;2023-07-29T06:08:51;18.90;99.90
39079;DHT22;24829;49.208;12.080;2023-07-29T06:11:20;18.80;99.90
39079;DHT22;24829;49.208;12.080;2023-07-29T06:13:47;18.80;99.90
39079;DHT22;24829;49.208;12.080;2023-07-29T06:16:13;18.80;99.90
39079;DHT22;24829;49.208;12.080;2023-07-29T06:18:38;18.70;99.90
39079;DHT22;24829;49.208;12.080;2023-07-29T06:21:04;18.80;99.90
39079;DHT22;24829;49.208;12.080;2023-07-29T06:23:33;18.80;99.90
39079;DHT22;24829;49.208;12.080;2023-07-29T06:25:59;19.00;99.90
39079;DHT22;24829;49.208;12.080;2023-07-29T06:28:26;19.20;99.90
39079;DHT22;24829;49.208;12.080;2023-07-29T06:30:52;19.30;99.90
39079;DHT22;24829;49.208;12.080;2023-07-29T06:33:18;19.30;99.90
39079;DHT22;24829;49.208;12.080;2023-07-29T06:35:43;19.30;99.90
39079;DHT22;24829;49.208;12.080;2023-07-29T06:38:09;19.30;99.90
39079;DHT22;24829;49.208;12.080;2023-07-29T06:40:34;19.30;99.90
39079;DHT22;24829;49.208;12.080;2023-07-29T06:43:00;19.30;99.90
39079;DHT22;24829;49.208;12.080;2023-07-29T06:45:26;19.20;99.90
39079;DHT22;24829;49.208;12.080;2023-07-29T06:47:52;19.20;99.90
39079;DHT22;24829;49.208;12.080;2023-07-29T06:50:17;19.20;99.90
39079;DHT22;24829;49.208;12.080;2023-07-29T06:52:44;19.20;99.90
39079;DHT22;24829;49.208;12.080;2023-07-29T06:55:10;19.30;99.90
39079;DHT22;24829;49.208;12.080;2023-07-29T06:57:36;19.30;99.90
39079;DHT22;24829;49.208;12.080;2023-07-29T07:00:02;19.40;99.90
39079;DHT22;24829;49.208;12.080;2023-07-29T07:02:28;19.40;99.90
39079;DHT22;24829;49.208;12.080;2023-07-29T07:04:54;19.50;99.90
39079;DHT22;24829;49.208;12.080;2023-07-29T07:07:19;19.60;99.90
39079;DHT22;24829;49.208;12.080;2023-07-29T07:09:45;19.60;99.90
39079;DHT22;24829;49.208;12.080;2023-07-29T07:12:10;19.60;99.90
39079;DHT22;24829;49.208;12.080;2023-07-29T07:14:37;19.70;99.90
39079;DHT22;24829;49.208;12.080;2023-07-29T07:17:02;19.70;99.90
39079;DHT22;24829;49.208;12.080;2023-07-29T07:19:28;19.70;99.90
39079;DHT22;24829;49.208;12.080;2023-07-29T07:21:53;19.60;99.90
39079;DHT22;24829;49.208;12.080;2023-07-29T07:24:19;19.50;99.90
39079;DHT22;24829;49.208;12.080;2023-07-29T07:26:45;19.50;99.90
39079;DHT22;24829;49.208;12.080;2023-07-29T07:29:10;19.40;99.90
39079;DHT22;24829;49.208;12.080;2023-07-29T07:31:36;19.30;99.90
39079;DHT22;24829;49.208;12.080;2023-07-29T07:34:01;19.30;99.90
39079;DHT22;24829;49.208;12.080;2023-07-29T07:36:28;19.30;99.90
39079;DHT22;24829;49.208;12.080;2023-07-29T07:38:54;19.40;99.90
39079;DHT22;24829;49.208;12.080;2023-07-29T07:41:19;19.50;99.90
39079;DHT22;24829;49.208;12.080;2023-07-29T07:43:45;19.60;99.90
39079;DHT22;24829;49.208;12.080;2023-07-29T07:46:10;19.70;99.90
39079;DHT22;24829;49.208;12.080;2023-07-29T07:48:37;19.80;99.90
39079;DHT22;24829;49.208;12.080;2023-07-29T07:51:10;19.90;99.90
39079;DHT22;24829;49.208;12.080;2023-07-29T07:53:36;20.00;99.90
39079;DHT22;24829;49.208;12.080;2023-07-29T07:56:02;20.00;99.90
39079;DHT22;24829;49.208;12.080;2023-07-29T07:58:27;20.20;99.90
39079;DHT22;24829;49.208;12.080;2023-07-29T08:01:01;20.20;99.90
39079;DHT22;24829;49.208;12.080;2023-07-29T08:03:26;20.20;99.90
39079;DHT22;24829;49.208;12.080;2023-07-29T08:05:52;20.00;99.90
39079;DHT22;24829;49.208;12.080;2023-07-29T08:08:17;20.00;99.90
39079;DHT22;24829;49.208;12.080;2023-07-29T08:10:43;19.90;99.90
39079;DHT22;24829;49.208;12.080;2023-07-29T08:13:09;19.80;99.90
39079;DHT22;24829;49.208;12.080;2023-07-29T08:15:34;19.80;99.90
39079;DHT22;24829;49.208;12.080;2023-07-29T08:18:00;19.60;99.90
39079;DHT22;24829;49.208;12.080;2023-07-29T08:20:25;19.60;99.90
39079;DHT22;24829;49.208;12.080;2023-07-29T08:22:51;19.40;99.90
39079;DHT22;24829;49.208;12.080;2023-07-29T08:25:16;19.30;99.90
39079;DHT22;24829;49.208;12.080;2023-07-29T08:27:42;19.20;99.90
39079;DHT22;24829;49.208;12.080;2023-07-29T08:30:08;19.10;99.90
39079;DHT22;24829;49.208;12.080;2023-07-29T08:32:34;19.00;99.90
39079;DHT22;24829;49.208;12.080;2023-07-29T08:34:59;18.90;99.90
39079;DHT22;24829;49.208;12.080;2023-07-29T08:37:25;18.80;99.90
39079;DHT22;24829;49.208;12.080;2023-07-29T08:39:52;18.60;99.90
39079;DHT22;24829;49.208;12.080;2023-07-29T08:42:19;18.50;99.90
39079;DHT22;24829;49.208;12.080;2023-07-29T08:44:49;18.40;99.90
39079;DHT22;24829;49.208;12.080;2023-07-29T08:47:15;18.30;99.90
39079;DHT22;24829;49.208;12.080;2023-07-29T08:49:41;18.30;99.90
39079;DHT22;24829;49.208;12.080;2023-07-29T08:52:07;18.20;99.90
39079;DHT22;24829;49.208;12.080;2023-07-29T08:54:33;18.10;99.90
39079;DHT22;24829;49.208;12.080;2023-07-29T08:57:00;18.10;99.90
39079;DHT22;24829;49.208;12.080;2023-07-29T08:59:26;18.00;99.90
39079;DHT22;24829;49.208;12.080;2023-07-29T09:01:54;18.00;99.90
39079;DHT22;24829;49.208;12.080;2023-07-29T09:04:22;17.90;99.90
39079;DHT22;24829;49.208;12.080;2023-07-29T09:06:50;17.80;99.90
39079;DHT22;24829;49.208;12.080;2023-07-29T09:09:15;17.80;99.90
39079;DHT22;24829;49.208;12.080;2023-07-29T09:11:41;17.80;99.90
39079;DHT22;24829;49.208;12.080;2023-07-29T09:14:07;17.80;99.90
39079;DHT22;24829;49.208;12.080;2023-07-29T09:16:32;17.90;99.90
39079;DHT22;24829;49.208;12.080;2023-07-29T09:19:01;17.90;99.90
39079;DHT22;24829;49.208;12.080;2023-07-29T09:21:27;17.90;99.90
39079;DHT22;24829;49.208;12.080;2023-07-29T09:23:54;18.00;99.90
39079;DHT22;24829;49.208;12.080;2023-07-29T09:26:27;18.10;99.90
39079;DHT22;24829;49.208;12.080;2023-07-29T09:28:55;18.20;99.90
39079;DHT22;24829;49.208;12.080;2023-07-29T09:31:25;18.30;99.90
39079;DHT22;24829;49.208;12.080;2023-07-29T09:34:01;18.40;99.90
39079;DHT22;24829;49.208;12.080;2023-07-29T09:36:30;18.50;99.90
39079;DHT22;24829;49.208;12.080;2023-07-29T09:38:56;18.50;99.90
39079;DHT22;24829;49.208;12.080;2023-07-29T09:41:24;18.50;99.90
39079;DHT22;24829;49.208;12.080;2023-07-29T09:43:59;18.60;99.90
39079;DHT22;24829;49.208;12.080;2023-07-29T09:46:25;18.60;99.90
39079;DHT22;24829;49.208;12.080;2023-07-29T09:48:56;18.60;99.90
39079;DHT22;24829;49.208;12.080;2023-07-29T09:51:23;18.70;99.90
39079;DHT22;24829;49.208;12.080;2023-07-29T09:53:51;18.70;99.90
39079;DHT22;24829;49.208;12.080;2023-07-29T09:56:17;18.70;99.90
39079;DHT22;24829;49.208;12.080;2023-07-29T09:58:48;18.70;99.90
39079;DHT22;24829;49.208;12.080;2023-07-29T10:01:13;18.70;99.90
39079;DHT22;24829;49.208;12.080;2023-07-29T10:03:40;18.80;99.90
39079;DHT22;24829;49.208;12.080;2023-07-29T10:06:06;18.90;99.90
39079;DHT22;24829;49.208;12.080;2023-07-29T10:08:33;19.00;99.90
39079;DHT22;24829;49.208;12.080;2023-07-29T10:11:08;19.00;99.90
39079;DHT22;24829;49.208;12.080;2023-07-29T10:13:33;19.10;99.90
39079;DHT22;24829;49.208;12.080;2023-07-29T10:16:00;19.00;99.90
39079;DHT22;24829;49.208;12.080;2023-07-29T10:18:29;19.10;99.90
39079;DHT22;24829;49.208;12.080;2023-07-29T10:20:57;19.10;99.90
39079;DHT22;24829;49.208;12.080;2023-07-29T10:23:24;19.00;99.90
39079;DHT22;24829;49.208;12.080;2023-07-29T10:25:59;19.00;99.90
39079;DHT22;24829;49.208;12.080;2023-07-29T10:28:29;19.00;99.90
39079;DHT22;24829;49.208;12.080;2023-07-29T10:30:56;18.90;99.90
39079;DHT22;24829;49.208;12.080;2023-07-29T10:33:22;19.00;99.90
39079;DHT22;24829;49.208;12.080;2023-07-29T10:35:48;19.00;99.90
39079;DHT22;24829;49.208;12.080;2023-07-29T10:38:14;19.10;99.90
39079;DHT22;24829;49.208;12.080;2023-07-29T10:40:51;19.10;99.90
39079;DHT22;24829;49.208;12.080;2023-07-29T10:43:24;19.20;99.90
39079;DHT22;24829;49.208;12.080;2023-07-29T10:45:50;19.30;99.90
39079;DHT22;24829;49.208;12.080;2023-07-29T10:56:31;19.80;99.90
39079;DHT22;24829;49.208;12.080;2023-07-29T10:59:02;20.00;99.90
39079;DHT22;24829;49.208;12.080;2023-07-29T11:01:29;20.30;99.90
39079;DHT22;24829;49.208;12.080;2023-07-29T11:20:15;20.70;99.90
39079;DHT22;24829;49.208;12.080;2023-07-29T11:22:41;20.70;99.90
39079;DHT22;24829;49.208;12.080;2023-07-29T11:25:09;20.60;99.90
39079;DHT22;24829;49.208;12.080;2023-07-29T11:27:35;20.60;99.90
39079;DHT22;24829;49.208;12.080;2023-07-29T11:30:05;20.60;99.90
39079;DHT22;24829;49.208;12.080;2023-07-29T11:32:32;20.70;99.90
39079;DHT22;24829;49.208;12.080;2023-07-29T11:35:02;20.80;99.90
39079;DHT22;24829;49.208;12.080;2023-07-29T11:37:28;20.80;99.90
39079;DHT22;24829;49.208;12.080;2023-07-29T11:39:53;20.90;99.90
39079;DHT22;24829;49.208;12.080;2023-07-29T11:42:19;21.10;99.90
39079;DHT22;24829;49.208;12.080;2023-07-29T11:44:45;21.40;99.90
39079;DHT22;24829;49.208;12.080;2023-07-29T11:47:11;21.70;99.90
39079;DHT22;24829;49.208;12.080;2023-07-29T11:49:41;22.00;99.90
39079;DHT22;24829;49.208;12.080;2023-07-29T11:52:10;22.00;99.90
39079;DHT22;24829;49.208;12.080;2023-07-29T11:54:37;22.00;99.90
39079;DHT22;24829;49.208;12.080;2023-07-29T11:57:09;22.00;99.90
39079;DHT22;24829;49.208;12.080;2023-07-29T11:59:35;22.00;99.90
39079;DHT22;24829;49.208;12.080;2023-07-29T12:02:02;21.90;99.90
39079;DHT22;24829;49.208;12.080;2023-07-29T12:04:30;21.90;99.90
39079;DHT22;24829;49.208;12.080;2023-07-29T12:06:56;21.90;99.90
39079;DHT22;24829;49.208;12.080;2023-07-29T12:09:23;21.90;99.90
39079;DHT22;24829;49.208;12.080;2023-07-29T12:11:48;21.80;99.90
39079;DHT22;24829;49.208;12.080;2023-07-29T12:14:16;21.90;99.90
39079;DHT22;24829;49.208;12.080;2023-07-29T12:16:43;22.10;99.90
39079;DHT22;24829;49.208;12.080;2023-07-29T12:19:12;22.40;99.90
39079;DHT22;24829;49.208;12.080;2023-07-29T12:21:39;22.60;99.90
39079;DHT22;24829;49.208;12.080;2023-07-29T12:24:05;22.80;99.90
39079;DHT22;24829;49.208;12.080;2023-07-29T12:26:31;23.00;99.90
39079;DHT22;24829;49.208;12.080;2023-07-29T12:28:57;23.20;99.90
39079;DHT22;24829;49.208;12.080;2023-07-29T12:31:30;23.30;99.90
39079;DHT22;24829;49.208;12.080;2023-07-29T12:33:56;23.50;99.90
39079;DHT22;24829;49.208;12.080;2023-07-29T12:36:22;23.70;99.90
39079;DHT22;24829;49.208;12.080;2023-07-29T12:38:52;23.90;99.90
39079;DHT22;24829;49.208;12.080;2023-07-29T12:41:17;23.90;99.90
39079;DHT22;24829;49.208;12.080;2023-07-29T12:43:43;23.80;99.90
39079;DHT22;24829;49.208;12.080;2023-07-29T12:46:09;23.70;99.90
39079;DHT22;24829;49.208;12.080;2023-07-29T12:48:34;23.50;99.90
39079;DHT22;24829;49.208;12.080;2023-07-29T12:51:00;23.20;99.90
39079;DHT22;24829;49.208;12.080;2023-07-29T12:53:25;23.10;99.90
39079;DHT22;24829;49.208;12.080;2023-07-29T12:55:51;22.90;99.90
39079;DHT22;24829;49.208;12.080;2023-07-29T12:58:16;22.80;99.90
39079;DHT22;24829;49.208;12.080;2023-07-29T13:00:42;22.60;99.90
39079;DHT22;24829;49.208;12.080;2023-07-29T13:03:08;22.50;99.90
39079;DHT22;24829;49.208;12.080;2023-07-29T13:05:33;22.40;99.90
39079;DHT22;24829;49.208;12.080;2023-07-29T13:07:59;22.20;99.90
39079;DHT22;24829;49.208;12.080;2023-07-29T13:10:25;22.20;99.90
39079;DHT22;24829;49.208;12.080;2023-07-29T13:12:50;22.10;99.90
39079;DHT22;24829;49.208;12.080;2023-07-29T13:15:16;22.00;99.90
39079;DHT22;24829;49.208;12.080;2023-07-29T13:17:41;22.00;99.90
39079;DHT22;24829;49.208;12.080;2023-07-29T13:20:08;22.00;99.90
39079;DHT22;24829;49.208;12.080;2023-07-29T13:22:33;22.00;99.90
39079;DHT22;24829;49.208;12.080;2023-07-29T13:24:59;22.00;99.90
39079;DHT22;24829;49.208;12.080;2023-07-29T13:27:25;22.00;99.90
39079;DHT22;24829;49.208;12.080;2023-07-29T13:29:51;22.00;99.90
39079;DHT22;24829;49.208;12.080;2023-07-29T13:32:16;22.00;99.90
39079;DHT22;24829;49.208;12.080;2023-07-29T13:34:42;21.90;99.90
39079;DHT22;24829;49.208;12.080;2023-07-29T13:37:08;22.00;99.90
39079;DHT22;24829;49.208;12.080;2023-07-29T13:39:34;22.00;99.90
39079;DHT22;24829;49.208;12.080;2023-07-29T13:41:59;22.10;99.90
39079;DHT22;24829;49.208;12.080;2023-07-29T13:44:25;22.20;99.90
39079;DHT22;24829;49.208;12.080;2023-07-29T13:46:50;22.50;99.90
39079;DHT22;24829;49.208;12.080;2023-07-29T13:49:16;22.50;99.90
39079;DHT22;24829;49.208;12.080;2023-07-29T13:51:42;22.60;99.90
39079;DHT22;24829;49.208;12.080;2023-07-29T13:54:08;22.80;99.90
39079;DHT22;24829;49.208;12.080;2023-07-29T13:56:33;22.80;99.90
39079;DHT22;24829;49.208;12.080;2023-07-29T13:58:59;22.90;99.90
39079;DHT22;24829;49.208;12.080;2023-07-29T14:01:24;23.00;99.90
39079;DHT22;24829;49.208;12.080;2023-07-29T14:03:50;23.10;99.90
39079;DHT22;24829;49.208;12.080;2023-07-29T14:06:16;23.10;99.90
39079;DHT22;24829;49.208;12.080;2023-07-29T14:08:41;23.10;99.90
39079;DHT22;24829;49.208;12.080;2023-07-29T14:11:07;23.20;99.90
39079;DHT22;24829;49.208;12.080;2023-07-29T14:13:33;23.30;99.90
39079;DHT22;24829;49.208;12.080;2023-07-29T14:16:01;23.30;99.90
39079;DHT22;24829;49.208;12.080;2023-07-29T14:18:28;23.40;99.90
39079;DHT22;24829;49.208;12.080;2023-07-29T14:20:53;23.40;99.90
39079;DHT22;24829;49.208;12.080;2023-07-29T14:23:19;23.50;99.90
39079;DHT22;24829;49.208;12.080;2023-07-29T14:25:44;23.50;99.90
39079;DHT22;24829;49.208;12.080;2023-07-29T14:28:10;23.50;99.90
39079;DHT22;24829;49.208;12.080;2023-07-29T14:30:35;23.50;99.90
39079;DHT22;24829;49.208;12.080;2023-07-29T14:33:03;23.50;99.90
39079;DHT22;24829;49.208;12.080;2023-07-29T14:35:28;23.40;99.90
39079;DHT22;24829;49.208;12.080;2023-07-29T14:37:54;23.40;99.90
39079;DHT22;24829;49.208;12.080;2023-07-29T14:40:19;23.40;99.90
39079;DHT22;24829;49.208;12.080;2023-07-29T14:42:45;23.40;99.90
39079;DHT22;24829;49.208;12.080;2023-07-29T14:45:10;23.50;99.90
39079;DHT22;24829;49.208;12.080;2023-07-29T14:47:36;23.50;99.90
39079;DHT22;24829;49.208;12.080;2023-07-29T14:50:01;23.60;99.90
39079;DHT22;24829;49.208;12.080;2023-07-29T14:52:27;23.60;99.90
39079;DHT22;24829;49.208;12.080;2023-07-29T14:54:53;23.70;99.90
39079;DHT22;24829;49.208;12.080;2023-07-29T14:57:18;23.80;99.90
39079;DHT22;24829;49.208;12.080;2023-07-29T14:59:44;23.90;99.90
39079;DHT22;24829;49.208;12.080;2023-07-29T15:02:09;24.00;99.90
39079;DHT22;24829;49.208;12.080;2023-07-29T15:04:35;24.00;99.90
39079;DHT22;24829;49.208;12.080;2023-07-29T15:07:02;23.90;99.90
39079;DHT22;24829;49.208;12.080;2023-07-29T15:09:28;23.90;99.90
39079;DHT22;24829;49.208;12.080;2023-07-29T15:11:53;23.90;99.90
39079;DHT22;24829;49.208;12.080;2023-07-29T15:14:19;23.80;99.90
39079;DHT22;24829;49.208;12.080;2023-07-29T15:16:44;23.80;99.90
39079;DHT22;24829;49.208;12.080;2023-07-29T15:19:10;23.70;99.90
39079;DHT22;24829;49.208;12.080;2023-07-29T15:21:36;23.70;99.90
39079;DHT22;24829;49.208;12.080;2023-07-29T15:24:01;23.60;99.90
39079;DHT22;24829;49.208;12.080;2023-07-29T15:26:28;23.60;99.90
39079;DHT22;24829;49.208;12.080;2023-07-29T15:28:53;23.60;99.90
39079;DHT22;24829;49.208;12.080;2023-07-29T15:31:19;23.60;99.90
39079;DHT22;24829;49.208;12.080;2023-07-29T15:33:45;23.70;99.90
39079;DHT22;24829;49.208;12.080;2023-07-29T15:36:10;23.70;99.90
39079;DHT22;24829;49.208;12.080;2023-07-29T15:38:36;23.80;99.90
39079;DHT22;24829;49.208;12.080;2023-07-29T15:41:01;23.90;99.90